createdAt,value
2022-09-05T00:03:23.440Z,56.32
2022-09-05T00:06:34.080Z,56.40
2022-09-05T00:10:05.924Z,56.46
2022-09-05T00:13:19.054Z,56.70
2022-09-05T00:17:00.654Z,56.76
2022-09-05T00:24:31.894Z,57.05
2022-09-05T00:24:37.606Z,56.79
2022-09-05T00:27:50.743Z,57.16
2022-09-05T00:31:53.720Z,56.99
2022-09-05T00:35:19.172Z,57.48
2022-09-05T00:38:36.526Z,57.47
2022-09-05T00:41:43.198Z,57.54
2022-09-05T00:44:56.555Z,57.82
2022-09-05T00:48:12.541Z,57.74
2022-09-05T00:51:34.501Z,57.89
2022-09-05T00:54:58.898Z,58.07
2022-09-05T00:58:34.802Z,58.27
2022-09-05T01:01:52.738Z,58.21
2022-09-05T01:05:04.916Z,58.28
2022-09-05T01:08:39.079Z,58.44
2022-09-05T01:12:02.298Z,58.51
2022-09-05T01:15:22.500Z,58.69
2022-09-05T01:18:48.371Z,58.58
2022-09-05T01:22:35.693Z,58.83
2022-09-05T01:26:01.062Z,58.70
2022-09-05T01:29:19.712Z,58.74
2022-09-05T01:32:39.140Z,58.94
2022-09-05T01:36:15.174Z,58.97
2022-09-05T01:40:11.689Z,58.88
2022-09-05T01:43:21.420Z,58.79
2022-09-05T01:46:41.149Z,59.04
2022-09-05T01:50:01.376Z,58.90
2022-09-05T01:53:28.849Z,58.89
2022-09-05T01:56:49.236Z,59.21
2022-09-05T02:00:05.370Z,59.41
2022-09-05T02:03:24.661Z,59.50
2022-09-05T02:06:46.187Z,59.60
2022-09-05T02:10:26.435Z,60.02
2022-09-05T02:13:53.531Z,60.22
2022-09-05T02:17:31.894Z,60.22
2022-09-05T02:20:49.499Z,60.44
2022-09-05T02:24:08.299Z,60.53
2022-09-05T02:27:43.563Z,60.50
2022-09-05T02:31:19.423Z,60.37
2022-09-05T02:34:35.481Z,60.51
2022-09-05T02:38:38.002Z,60.61
2022-09-05T02:45:15.039Z,60.89
2022-09-05T02:45:26.909Z,60.94
2022-09-05T02:48:49.649Z,60.84
2022-09-05T02:57:24.566Z,61.01
2022-09-05T02:57:46.684Z,61.10
2022-09-05T02:59:36.295Z,60.96
2022-09-05T03:03:14.064Z,60.97
2022-09-05T03:06:34.855Z,60.95
2022-09-05T03:10:01.623Z,60.76
2022-09-05T03:14:08.682Z,60.83
2022-09-05T03:18:20.319Z,60.68
2022-09-05T03:22:36.199Z,60.53
2022-09-05T03:26:37.619Z,60.60
2022-09-05T03:30:12.247Z,60.48
2022-09-05T03:33:55.329Z,60.62
2022-09-05T03:37:56.153Z,60.50
2022-09-05T03:41:19.199Z,60.44
2022-09-05T03:44:45.643Z,60.74
2022-09-05T03:48:27.842Z,60.64
2022-09-05T03:57:06.779Z,60.44
2022-09-05T03:57:28.411Z,60.28
2022-09-05T03:59:43.850Z,60.10
2022-09-05T04:08:11.496Z,59.83
2022-09-05T04:08:24.858Z,60.05
2022-09-05T04:10:13.202Z,59.96
2022-09-05T04:13:26.267Z,59.91
2022-09-05T04:16:43.860Z,59.85
2022-09-05T04:19:55.702Z,60.09
2022-09-05T04:23:18.990Z,60.03
2022-09-05T04:26:57.347Z,60.04
2022-09-05T04:30:38.020Z,60.07
2022-09-05T04:33:38.535Z,60.20
2022-09-05T04:36:47.037Z,60.21
2022-09-05T04:39:50.986Z,60.24
2022-09-05T04:42:54.818Z,60.38
2022-09-05T04:46:15.731Z,60.28
2022-09-05T04:49:28.719Z,60.52
2022-09-05T04:53:02.799Z,60.28
2022-09-05T04:56:17.972Z,60.34
2022-09-05T05:01:44.450Z,60.56
2022-09-05T05:06:15.941Z,60.74
2022-09-05T05:06:45.451Z,60.71
2022-09-05T05:10:31.753Z,60.75
2022-09-05T05:18:03.938Z,60.82
2022-09-05T05:18:12.191Z,60.73
2022-09-05T05:20:41.776Z,60.93
2022-09-05T05:23:53.495Z,60.99
2022-09-05T05:27:11.563Z,61.12
2022-09-05T05:30:29.375Z,61.22
2022-09-05T05:33:37.082Z,61.28
2022-09-05T05:36:51.654Z,61.40
2022-09-05T05:40:07.016Z,61.24
2022-09-05T05:43:22.638Z,61.02
2022-09-05T05:46:37.522Z,60.78
2022-09-05T05:49:59.024Z,60.65
2022-09-05T05:53:42.769Z,60.39
2022-09-05T05:57:23.440Z,60.09
2022-09-05T06:01:02.258Z,59.85
2022-09-05T06:04:57.296Z,59.50
2022-09-05T06:12:38.768Z,59.50
2022-09-05T06:14:55.798Z,59.30
2022-09-05T06:17:38.002Z,58.90
2022-09-05T06:22:10.593Z,58.32
2022-09-05T06:26:08.197Z,58.53
2022-09-05T06:29:38.385Z,58.74
2022-09-05T06:33:10.182Z,58.89
2022-09-05T06:36:33.718Z,58.87
2022-09-05T06:40:04.236Z,59.12
2022-09-05T06:43:28.363Z,59.12
2022-09-05T06:46:54.785Z,59.04
2022-09-05T06:50:26.941Z,59.61
2022-09-05T06:54:02.473Z,59.56
2022-09-05T06:57:50.060Z,59.29
2022-09-05T07:00:57.287Z,59.33
2022-09-05T07:05:14.672Z,59.17
2022-09-05T07:07:54.464Z,59.31
2022-09-05T07:11:15.611Z,58.53
2022-09-05T07:14:26.903Z,58.96
2022-09-05T07:18:09.529Z,58.38
2022-09-05T07:21:31.802Z,58.30
2022-09-05T07:24:54.815Z,58.35
2022-09-05T07:28:28.378Z,58.57
2022-09-05T07:31:38.106Z,57.64
2022-09-05T07:34:46.223Z,56.74
2022-09-05T07:38:04.144Z,55.44
2022-09-05T07:41:23.810Z,54.10
2022-09-05T07:44:32.880Z,53.35
2022-09-05T07:47:42.470Z,53.35
2022-09-05T07:56:54.388Z,53.05
2022-09-05T07:56:55.836Z,52.78
2022-09-05T07:57:51.674Z,53.01
2022-09-05T08:00:59.363Z,52.86
2022-09-05T08:04:05.779Z,52.29
2022-09-05T08:07:46.965Z,52.06
2022-09-05T08:11:24.389Z,51.77
2022-09-05T08:14:43.899Z,51.57
2022-09-05T08:18:11.083Z,51.33
2022-09-05T08:21:27.788Z,51.21
2022-09-05T08:24:41.542Z,51.06
2022-09-05T08:28:06.445Z,50.54
2022-09-05T08:31:20.597Z,50.35
2022-09-05T08:34:44.786Z,50.73
2022-09-05T08:37:52.358Z,50.14
2022-09-05T08:41:08.623Z,50.13
2022-09-05T08:46:40.018Z,49.14
2022-09-05T08:47:56.833Z,49.09
2022-09-05T08:51:25.559Z,48.59
2022-09-05T08:54:38.894Z,48.32
2022-09-05T08:58:27.859Z,47.82
2022-09-05T09:01:50.227Z,47.79
2022-09-05T09:05:15.142Z,48.00
2022-09-05T09:08:29.712Z,48.03
2022-09-05T09:11:40.151Z,47.31
2022-09-05T09:14:59.433Z,47.20
2022-09-05T09:18:15.256Z,47.42
2022-09-05T09:21:35.509Z,46.83
2022-09-05T09:24:47.012Z,46.38
2022-09-05T09:28:50.052Z,46.30
2022-09-05T09:32:09.640Z,45.94
2022-09-05T09:35:24.946Z,45.46
2022-09-05T09:38:47.321Z,44.93
2022-09-05T09:42:10.087Z,45.50
2022-09-05T09:46:11.683Z,45.70
2022-09-05T09:49:43.611Z,45.06
2022-09-05T09:53:39.359Z,44.38
2022-09-05T09:57:25.522Z,44.42
2022-09-05T10:00:51.391Z,44.16
2022-09-05T10:10:35.430Z,44.09
2022-09-05T10:10:44.578Z,44.11
2022-09-05T10:12:10.178Z,44.35
2022-09-05T10:15:32.448Z,44.14
2022-09-05T10:23:21.555Z,43.45
2022-09-05T10:27:04.479Z,44.14
2022-09-05T10:30:13.889Z,44.30
2022-09-05T10:35:17.844Z,44.26
2022-09-05T10:37:09.982Z,43.63
2022-09-05T10:40:20.804Z,43.55
2022-09-05T10:43:31.237Z,44.07
2022-09-05T10:46:51.526Z,43.69
2022-09-05T10:50:12.459Z,43.54
2022-09-05T10:53:45.136Z,43.45
2022-09-05T10:56:58.546Z,43.51
2022-09-05T11:02:19.266Z,43.24
2022-09-05T11:04:18.227Z,43.06
2022-09-05T11:07:37.128Z,42.36
2022-09-05T11:10:54.455Z,43.08
2022-09-05T11:14:00.938Z,42.90
2022-09-05T11:17:22.652Z,42.50
2022-09-05T11:20:56.230Z,42.20
2022-09-05T11:24:15.925Z,41.74
2022-09-05T11:27:31.572Z,41.70
2022-09-05T11:30:42.828Z,41.48
2022-09-05T11:39:48.899Z,41.85
2022-09-05T11:40:06.814Z,41.40
2022-09-05T11:42:53.954Z,40.69
2022-09-05T11:46:23.960Z,40.01
2022-09-05T11:50:16.362Z,40.33
2022-09-05T11:53:58.038Z,40.37
2022-09-05T11:57:35.190Z,40.33
2022-09-05T12:00:48.367Z,40.12
2022-09-05T12:04:27.746Z,39.55
2022-09-05T12:07:52.150Z,39.59
2022-09-05T12:11:14.606Z,39.78
2022-09-05T12:14:42.453Z,40.33
2022-09-05T12:18:19.342Z,40.06
2022-09-05T12:21:38.315Z,40.33
2022-09-05T12:25:25.611Z,39.69
2022-09-05T12:29:34.243Z,39.89
2022-09-05T12:36:06.730Z,39.25
2022-09-05T12:40:57.583Z,39.13
2022-09-05T12:41:42.042Z,38.80
2022-09-05T12:44:38.219Z,39.20
2022-09-05T12:46:50.296Z,39.43
2022-09-05T12:50:14.158Z,39.17
2022-09-05T12:53:21.643Z,39.19
2022-09-05T13:01:27.099Z,38.93
2022-09-05T13:03:06.302Z,39.41
2022-09-05T13:04:13.373Z,38.90
2022-09-05T13:07:21.223Z,38.65
2022-09-05T13:13:30.600Z,39.07
2022-09-05T13:14:53.191Z,39.07
2022-09-05T13:17:44.322Z,38.57
2022-09-05T13:21:07.755Z,38.54
2022-09-05T13:24:18.964Z,38.64
2022-09-05T13:27:30.131Z,38.50
2022-09-05T13:33:03.470Z,38.68
2022-09-05T13:38:05.480Z,38.94
2022-09-05T13:38:09.895Z,38.55
2022-09-05T13:41:26.967Z,39.00
2022-09-05T13:44:46.529Z,38.82
2022-09-05T13:48:28.410Z,38.56
2022-09-05T13:51:43.981Z,38.39
2022-09-05T13:54:55.636Z,38.53
2022-09-05T13:58:17.838Z,39.05
2022-09-05T14:01:58.691Z,38.53
2022-09-05T14:05:30.096Z,37.90
2022-09-05T14:12:37.261Z,38.25
2022-09-05T14:15:52.763Z,38.31
2022-09-05T14:19:15.983Z,38.49
2022-09-05T14:22:41.011Z,38.25
2022-09-05T14:25:54.068Z,38.53
2022-09-05T14:29:17.970Z,38.46
2022-09-05T14:37:40.566Z,38.33
2022-09-05T14:37:40.802Z,38.17
2022-09-05T14:41:06.979Z,37.52
2022-09-05T14:44:42.400Z,37.76
2022-09-05T14:48:19.851Z,37.84
2022-09-05T14:51:43.135Z,37.87
2022-09-05T15:02:45.617Z,38.25
2022-09-05T15:02:51.648Z,37.79
2022-09-05T15:05:41.882Z,37.95
2022-09-05T15:11:25.542Z,37.29
2022-09-05T15:12:31.251Z,37.58
2022-09-05T15:16:02.532Z,37.76
2022-09-05T15:19:11.630Z,38.13
2022-09-05T15:22:27.790Z,38.31
2022-09-05T15:25:33.512Z,37.84
2022-09-05T15:28:40.299Z,38.37
2022-09-05T15:31:44.154Z,37.88
2022-09-05T15:34:52.935Z,38.62
2022-09-05T15:37:56.551Z,38.64
2022-09-05T15:41:17.373Z,38.67
2022-09-05T15:44:27.323Z,38.42
2022-09-05T15:47:33.939Z,38.58
2022-09-05T15:50:46.011Z,39.22
2022-09-05T15:53:53.986Z,39.45
2022-09-05T15:57:03.248Z,39.04
2022-09-05T16:00:12.305Z,39.25
2022-09-05T16:06:10.724Z,39.51
2022-09-05T16:10:27.934Z,39.20
2022-09-05T16:10:58.092Z,39.39
2022-09-05T16:13:55.129Z,39.70
2022-09-05T16:23:16.610Z,39.50
2022-09-05T16:23:26.986Z,39.50
2022-09-05T16:24:14.923Z,39.53
2022-09-05T16:27:43.719Z,39.47
2022-09-05T16:30:50.412Z,39.63
2022-09-05T16:33:54.418Z,39.69
2022-09-05T16:37:08.957Z,39.95
2022-09-05T16:40:22.863Z,40.05
2022-09-05T16:43:31.094Z,40.47
2022-09-05T16:46:45.968Z,40.01
2022-09-05T16:50:01.534Z,40.33
2022-09-05T16:53:32.942Z,40.13
2022-09-05T16:56:44.517Z,40.52
2022-09-05T16:59:50.462Z,40.66
2022-09-05T17:03:08.091Z,40.83
2022-09-05T17:06:25.567Z,41.18
2022-09-05T17:09:41.278Z,41.57
2022-09-05T17:12:46.782Z,41.51
2022-09-05T17:15:53.238Z,41.62
2022-09-05T17:19:00.778Z,41.82
2022-09-05T17:24:49.341Z,41.93
2022-09-05T17:29:23.976Z,42.05
2022-09-05T17:33:18.384Z,42.62
2022-09-05T17:36:36.430Z,42.26
2022-09-05T17:39:56.714Z,42.34
2022-09-05T17:43:07.411Z,42.58
2022-09-05T17:46:25.136Z,42.65
2022-09-05T17:49:45.306Z,43.06
2022-09-05T17:53:25.005Z,42.99
2022-09-05T17:56:37.206Z,43.56
2022-09-05T17:59:40.887Z,43.65
2022-09-05T18:02:57.654Z,44.01
2022-09-05T18:06:04.855Z,44.24
2022-09-05T18:09:13.055Z,44.52
2022-09-05T18:13:13.191Z,44.93
2022-09-05T18:16:13.061Z,44.80
2022-09-05T18:20:00.311Z,45.41
2022-09-05T18:23:46.554Z,45.88
2022-09-05T18:27:11.418Z,46.08
2022-09-05T18:34:42.822Z,46.37
2022-09-05T18:37:54.428Z,46.87
2022-09-05T18:41:24.969Z,47.28
2022-09-05T18:44:36.734Z,47.61
2022-09-05T18:47:52.856Z,47.81
2022-09-05T18:51:13.025Z,47.99
2022-09-05T18:54:25.368Z,48.33
2022-09-05T18:57:38.068Z,48.47
2022-09-05T19:00:46.880Z,48.59
2022-09-05T19:03:54.592Z,48.86
2022-09-05T19:07:08.604Z,48.98
2022-09-05T19:10:34.821Z,49.02
2022-09-05T19:13:44.861Z,48.92
2022-09-05T19:16:50.863Z,48.85
2022-09-05T19:20:32.461Z,48.75
2022-09-05T19:23:47.805Z,48.80
2022-09-05T19:26:58.223Z,48.81
2022-09-05T19:36:47.092Z,48.66
2022-09-05T19:37:10.140Z,48.69
2022-09-05T19:37:29.437Z,48.64
2022-09-05T19:47:25.611Z,48.59
2022-09-05T19:47:39.307Z,48.56
2022-09-05T19:48:08.361Z,48.44
2022-09-05T19:51:17.249Z,48.16
2022-09-05T19:54:29.582Z,48.20
2022-09-05T19:57:34.666Z,48.30
2022-09-05T20:00:42.324Z,48.35
2022-09-05T20:03:55.094Z,48.71
2022-09-05T20:06:58.893Z,49.02
2022-09-05T20:10:05.198Z,49.22
2022-09-05T20:13:24.332Z,49.32
2022-09-05T20:16:32.187Z,49.48
2022-09-05T20:19:36.793Z,49.68
2022-09-05T20:22:50.414Z,49.89
2022-09-05T20:25:57.956Z,49.93
2022-09-05T20:29:09.178Z,49.78
2022-09-05T20:32:17.915Z,49.61
2022-09-05T20:42:24.829Z,49.28
2022-09-05T20:43:18.672Z,49.16
2022-09-05T20:43:21.186Z,49.23
2022-09-05T20:47:43.598Z,49.02
2022-09-05T20:54:07.604Z,49.18
2022-09-05T20:54:10.539Z,49.07
2022-09-05T20:56:32.577Z,49.23
2022-09-05T20:59:41.448Z,49.14
2022-09-05T21:02:56.014Z,49.30
2022-09-05T21:06:12.889Z,49.32
2022-09-05T21:09:24.743Z,49.54
2022-09-05T21:12:33.129Z,49.44
2022-09-05T21:15:52.948Z,49.40
2022-09-05T21:18:59.515Z,49.65
2022-09-05T21:22:06.279Z,49.79
2022-09-05T21:25:25.153Z,50.02
2022-09-05T21:28:44.298Z,49.97
2022-09-05T21:31:54.391Z,49.90
2022-09-05T21:35:01.011Z,50.01
2022-09-05T21:38:04.871Z,50.16
2022-09-05T21:41:09.626Z,50.15
2022-09-05T21:47:34.677Z,50.45
2022-09-05T21:47:52.228Z,50.51
2022-09-05T21:51:02.552Z,50.41
2022-09-05T21:59:14.249Z,50.44
2022-09-05T21:59:24.054Z,50.54
2022-09-05T22:01:02.440Z,50.43
2022-09-05T22:04:07.486Z,50.84
2022-09-05T22:07:30.520Z,50.72
2022-09-05T22:10:52.344Z,50.71
2022-09-05T22:13:59.015Z,51.02
2022-09-05T22:17:04.902Z,50.89
2022-09-05T22:20:10.657Z,51.04
2022-09-05T22:23:15.849Z,51.35
2022-09-05T22:26:22.581Z,51.55
2022-09-05T22:29:26.950Z,51.59
2022-09-05T22:32:34.769Z,51.73
2022-09-05T22:35:40.967Z,51.72
2022-09-05T22:38:47.651Z,51.96
2022-09-05T22:41:51.335Z,51.95
2022-09-05T22:44:55.021Z,51.92
2022-09-05T22:47:59.530Z,52.15
2022-09-05T22:51:03.287Z,52.16
2022-09-05T22:54:08.372Z,52.00
2022-09-05T22:57:12.051Z,52.31
2022-09-05T23:00:16.563Z,52.38
2022-09-05T23:03:20.528Z,52.36
2022-09-05T23:06:24.420Z,52.59
2022-09-05T23:09:30.523Z,52.52
2022-09-05T23:12:37.478Z,52.74
2022-09-05T23:15:59.259Z,52.84
2022-09-05T23:19:03.012Z,53.09
2022-09-05T23:22:06.911Z,53.32
2022-09-05T23:25:12.307Z,53.38
2022-09-05T23:28:16.018Z,53.53
2022-09-05T23:31:19.783Z,53.47
2022-09-05T23:34:23.771Z,53.57
2022-09-05T23:37:27.683Z,53.92
2022-09-05T23:40:32.748Z,53.98
2022-09-05T23:43:36.762Z,53.97
2022-09-05T23:46:40.601Z,54.06
2022-09-05T23:49:44.343Z,54.24
2022-09-05T23:52:49.493Z,54.41
2022-09-05T23:55:54.628Z,54.45
2022-09-05T23:58:58.430Z,54.70
